Time;durP1;ratioP1;P1;durP2;ratioP2;P2;SDS_P1;SDS_P2;PMS_P1;PMS_P2;Temp;Humidity;BMP_temperature;BMP_pressure;BME280_temperature;BME280_humidity;BME280_pressure;Samples;Min_cycle;Max_cycle;Signal;HPM_P1;HPM_P2
2023/06/06 00:00:00;;;;;;;9.80;5.90;;;;;;;16.87;61.97;100493.09;133592;1302;23310;-80
2023/06/06 00:03:01;;;;;;;13.50;6.40;;;;;;;16.87;62.22;100491.19;133739;1301;22406;-75
2023/06/06 00:06:04;;;;;;;10.00;5.90;;;;;;;16.88;62.55;100497.29;133770;1293;22439;-76
2023/06/06 00:09:05;;;;;;;8.80;5.50;;;;;;;16.89;63.00;100503.63;133830;1301;22339;-74
2023/06/06 00:12:12;;;;;;;;;;;;;;;16.88;63.35;100501.82;133832;1300;22458;-75
2023/06/06 00:15:15;;;;;;;9.90;6.60;;;;;;;16.86;63.74;100502.27;133792;1301;22486;-75
2023/06/06 00:18:16;;;;;;;9.30;7.00;;;;;;;16.83;63.94;100505.84;133738;1302;22389;-74
2023/06/06 00:21:16;;;;;;;9.20;6.10;;;;;;;16.80;64.18;100503.92;133746;1301;22452;-79
2023/06/06 00:24:17;;;;;;;9.00;6.30;;;;;;;16.78;64.48;100508.20;133781;1302;22405;-75
2023/06/06 00:27:19;;;;;;;7.40;6.50;;;;;;;16.76;64.62;100506.56;133735;1301;22422;-75
2023/06/06 00:30:20;;;;;;;7.90;6.20;;;;;;;16.73;65.09;100504.43;133463;1301;22386;-75
2023/06/06 00:33:20;;;;;;;9.90;7.70;;;;;;;16.68;65.31;100503.45;133760;1301;22300;-82
2023/06/06 00:36:23;;;;;;;8.90;6.60;;;;;;;16.66;65.96;100502.23;133623;1302;22512;-75
2023/06/06 00:39:24;;;;;;;8.70;6.70;;;;;;;16.67;66.44;100500.57;133590;1306;22440;-76
2023/06/06 00:42:25;;;;;;;;;;;;;;;16.65;66.46;100497.66;133683;1301;22570;-74
2023/06/06 00:45:25;;;;;;;;;;;;;;;16.62;66.74;100500.48;133547;1302;22456;-75
2023/06/06 00:48:26;;;;;;;;;;;;;;;16.57;67.09;100495.86;133528;1302;22543;-80
2023/06/06 00:51:26;;;;;;;;;;;;;;;16.54;67.42;100491.76;133686;1301;22468;-76
2023/06/06 00:54:27;;;;;;;;;;;;;;;16.53;67.73;100492.70;133660;1301;22470;-75
2023/06/06 00:57:27;;;;;;;;;;;;;;;16.50;67.84;100498.98;133582;1302;22462;-74
2023/06/06 01:00:32;;;;;;;;;;;;;;;16.42;67.82;100504.73;133593;1302;22459;-81
2023/06/06 01:03:33;;;;;;;;;;;;;;;16.27;68.10;100506.66;133580;1301;22443;-76
2023/06/06 01:06:37;;;;;;;;;;;;;;;16.12;68.60;100505.58;133563;1301;22486;-74
2023/06/06 01:09:39;;;;;;;;;;;;;;;16.02;69.06;100501.42;133609;1302;22497;-75
2023/06/06 01:12:44;;;;;;;;;;;;;;;15.98;69.35;100497.88;133631;1301;22434;-82
2023/06/06 01:15:45;;;;;;;;;;;;;;;15.88;69.65;100492.45;133686;1301;22475;-74
2023/06/06 01:18:47;;;;;;;;;;;;;;;15.80;70.08;100491.71;133449;1304;23215;-76
2023/06/06 01:21:48;;;;;;;;;;;;;;;15.70;70.30;100492.97;133330;1302;22532;-74
2023/06/06 01:24:51;;;;;;;;;;;;;;;15.59;70.63;100490.21;133441;1303;22444;-75
2023/06/06 01:27:53;;;;;;;;;;;;;;;15.50;70.78;100490.73;133572;1302;22491;-79
2023/06/06 01:30:53;;;;;;;;;;;;;;;15.47;71.03;100493.84;133662;1301;22456;-75
2023/06/06 01:34:01;;;;;;;;;;;;;;;15.48;71.25;100488.53;133509;1302;22465;-74
2023/06/06 01:37:02;;;;;;;;;;;;;;;15.51;71.23;100492.71;133619;1301;22491;-79
2023/06/06 01:40:08;;;;;;;;;;;;;;;15.52;71.34;100487.50;133746;1304;25524;-75
2023/06/06 01:43:09;;;;;;;;;;;;;;;15.54;71.56;100486.50;133713;1301;22465;-74
2023/06/06 01:46:11;;;;;;;;;;;;;;;15.55;71.54;100485.48;133646;1304;22450;-74
2023/06/06 01:49:13;;;;;;;;;;;;;;;15.58;71.67;100482.42;133753;1301;22432;-74
2023/06/06 01:52:13;;;;;;;;;;;;;;;15.62;71.82;100486.80;133676;1305;22518;-75
2023/06/06 01:55:14;;;;;;;;;;;;;;;15.62;72.08;100482.83;133775;1301;22504;-74
2023/06/06 01:58:15;;;;;;;;;;;;;;;15.65;72.48;100482.33;133756;1301;22422;-76
2023/06/06 02:01:16;;;;;;;;;;;;;;;15.69;72.75;100484.53;133627;1302;23629;-74
2023/06/06 02:04:17;;;;;;;;;;;;;;;15.72;72.89;100481.69;133775;1302;22436;-75
2023/06/06 02:07:17;;;;;;;;;;;;;;;15.74;73.04;100480.91;133679;1301;22476;-76
2023/06/06 02:10:18;;;;;;;;;;;;;;;15.74;73.28;100479.67;133743;1301;23229;-77
2023/06/06 02:13:18;;;;;;;;;;;;;;;15.73;73.28;100479.09;133756;1301;22426;-74
2023/06/06 02:16:18;;;;;;;;;;;;;;;15.74;73.24;100479.67;133614;1302;22446;-75
2023/06/06 02:19:19;;;;;;;;;;;;;;;15.69;73.26;100477.77;133775;1301;22425;-74
2023/06/06 02:22:22;;;;;;;;;;;;;;;15.63;73.49;100472.39;133743;1301;23179;-76
2023/06/06 02:25:25;;;;;;;;;;;;;;;15.62;73.97;100471.77;133774;1302;23557;-74
2023/06/06 02:28:25;;;;;;;;;;;;;;;15.62;74.04;100467.48;133674;1303;22455;-74
2023/06/06 02:31:27;;;;;;;;;;;;;;;15.62;74.25;100463.61;133678;1302;22447;-74
2023/06/06 02:34:28;;;;;;;;;;;;;;;15.64;74.27;100461.38;133764;1301;22471;-74
2023/06/06 02:37:30;;;;;;;;;;;;;;;15.67;74.26;100465.27;133615;1303;22437;-75
2023/06/06 02:40:30;;;;;;;;;;;;;;;15.67;74.22;100464.40;133837;1301;22458;-75
2023/06/06 02:43:35;;;;;;;;;;;;;;;15.69;74.43;100466.31;133634;1301;22546;-74
2023/06/06 02:46:35;;;;;;;;;;;;;;;15.73;74.56;100468.35;133776;1300;23287;-75
2023/06/06 02:49:36;;;;;;;;;;;;;;;15.75;74.73;100470.92;133778;1300;22449;-76
2023/06/06 02:52:38;;;;;;;;;;;;;;;15.76;74.73;100471.55;133848;1300;22499;-75
2023/06/06 02:55:38;;;;;;;;;;;;;;;15.77;75.11;100464.14;133750;1300;23123;-74
2023/06/06 02:58:39;;;;;;;;;;;;;;;15.72;75.44;100454.10;133650;1301;22420;-78
2023/06/06 03:01:44;;;;;;;;;;;;;;;15.68;75.22;100450.97;133750;1301;22525;-76
2023/06/06 03:04:45;;;;;;;;;;;;;;;15.68;75.59;100448.46;133610;1304;22451;-81
2023/06/06 03:07:46;;;;;;;;;;;;;;;15.66;75.71;100448.71;133805;1300;22452;-76
2023/06/06 03:10:47;;;;;;;;;;;;;;;15.66;75.75;100449.50;133672;1301;22485;-75
2023/06/06 03:13:48;;;;;;;;;;;;;;;15.69;75.87;100448.20;133610;1303;23088;-75
2023/06/06 03:16:51;;;;;;;;;;;;;;;15.68;75.88;100444.50;133588;1302;22465;-75
2023/06/06 03:19:55;;;;;;;;;;;;;;;15.67;75.94;100440.17;133635;1301;22433;-78
2023/06/06 03:22:56;;;;;;;;;;;;;;;15.65;76.07;100436.79;133584;1303;22442;-75
2023/06/06 03:25:56;;;;;;;;;;;;;;;15.66;76.17;100434.86;133626;1305;22487;-75
2023/06/06 03:28:57;;;;;;;;;;;;;;;15.66;76.05;100431.92;133676;1302;22502;-75
2023/06/06 03:31:58;;;;;;;;;;;;;;;15.63;75.86;100434.65;133777;1300;22466;-76
2023/06/06 03:34:59;;;;;;;;;;;;;;;15.63;76.05;100436.69;133585;1303;22473;-75
2023/06/06 03:38:00;;;;;;;;;;;;;;;15.61;75.90;100434.81;133790;1300;22466;-74
2023/06/06 03:41:02;;;;;;;;;;;;;;;15.61;75.89;100434.35;133487;1308;22458;-75
2023/06/06 03:44:03;;;;;;;;;;;;;;;15.66;76.08;100436.77;133614;1296;22517;-75
2023/06/06 03:47:04;;;;;;;;;;;;;;;15.68;76.07;100439.00;133633;1301;22455;-75
2023/06/06 03:50:05;;;;;;;;;;;;;;;15.70;76.17;100438.61;133539;1297;274720;-76
2023/06/06 03:53:05;;;;;;;;;;;;;;;15.68;76.13;100443.38;133756;1301;22432;-75
2023/06/06 03:56:11;;;;;;;;;;;;;;;15.64;76.11;100442.68;133692;1302;22437;-75
2023/06/06 03:59:11;;;;;;;;;;;;;;;15.58;76.37;100445.42;133732;1301;22615;-75
2023/06/06 04:02:12;;;;;;;;;;;;;;;15.47;76.95;100455.86;133583;1303;23235;-74
2023/06/06 04:05:13;;;;;;;;;;;;;;;15.35;76.92;100463.25;133652;1300;22448;-76
2023/06/06 04:08:14;;;;;;;;;;;;;;;15.33;77.15;100475.16;133599;1302;23147;-75
2023/06/06 04:11:14;;;;;;;;;;;;;;;15.34;77.46;100476.23;133894;1301;22481;-75
2023/06/06 04:14:15;;;;;;;;;;;;;;;15.31;77.65;100475.14;133609;1302;22440;-75
2023/06/06 04:17:15;;;;;;;;;;;;;;;15.29;77.82;100470.23;133752;1300;22469;-75
2023/06/06 04:20:16;;;;;;;;;;;;;;;15.26;77.66;100471.34;133747;1301;22454;-75
2023/06/06 04:23:18;;;;;;;;;;;;;;;15.25;77.61;100468.36;133648;1301;22548;-75
2023/06/06 04:26:26;;;;;;;;;;;;;;;15.28;77.65;100471.81;133707;1300;22473;-76
2023/06/06 04:29:26;;;;;;;;;;;;;;;15.31;77.49;100472.71;133627;1302;22509;-74
2023/06/06 04:32:29;;;;;;;;;;;;;;;15.34;77.51;100476.00;133695;1301;22502;-75
2023/06/06 04:35:33;;;;;;;;;;;;;;;15.38;77.48;100478.69;133611;1303;22487;-75
2023/06/06 04:38:39;;;;;;;;;;;;;;;15.43;77.41;100483.34;133657;1300;22497;-74
2023/06/06 04:41:43;;;;;;;;;;;;;;;15.45;77.28;100484.60;133819;1301;22585;-74
2023/06/06 04:44:46;;;;;;;;;;;;;;;15.52;77.13;100487.05;133599;1301;22519;-80
2023/06/06 04:47:47;;;;;;;;;;;;;;;15.57;77.07;100489.08;133771;1301;22471;-81
2023/06/06 04:50:49;;;;;;;;;;;;;;;15.61;77.06;100490.51;133623;1302;22499;-75
2023/06/06 04:53:53;;;;;;;;;;;;;;;15.64;77.09;100494.38;133665;1304;23049;-79
2023/06/06 04:56:56;;;;;;;;;;;;;;;15.67;76.98;100496.85;133859;1300;22571;-75
2023/06/06 04:59:57;;;;;;;;;;;;;;;15.71;76.91;100501.26;133811;1301;22551;-82
2023/06/06 05:03:00;;;;;;;;;;;;;;;15.76;76.86;100501.95;133762;1301;23259;-74
2023/06/06 05:06:02;;;;;;;;;;;;;;;15.80;76.79;100500.52;133731;1300;22496;-72
2023/06/06 05:09:04;;;;;;;;;;;;;;;15.86;76.97;100502.68;133628;1303;22531;-75
2023/06/06 05:12:10;;;;;;;;;;;;;;;15.95;77.23;100500.52;133663;1301;22478;-78
2023/06/06 05:15:10;;;;;;;;;;;;;;;16.02;77.49;100502.52;133798;1302;23192;-75
2023/06/06 05:18:16;;;;;;;;;;;;;;;16.08;77.73;100507.08;133781;1300;22461;-76
2023/06/06 05:21:18;;;;;;;;;;;;;;;16.12;77.62;100507.72;133788;1301;22436;-75
2023/06/06 05:24:18;;;;;;;;;;;;;;;16.15;77.67;100508.16;133810;1300;22459;-75
2023/06/06 05:27:19;;;;;;;;;;;;;;;16.15;77.77;100506.77;133784;1302;23303;-77
2023/06/06 05:30:19;;;;;;;;;;;;;;;16.15;77.83;100506.27;133742;1303;22464;-81
2023/06/06 05:33:20;;;;;;;;;;;;;;;16.19;77.82;100504.23;133762;1302;22438;-83
2023/06/06 05:36:21;;;;;;;;;;;;;;;16.18;77.79;100506.21;133746;1300;22488;-74
2023/06/06 05:39:26;;;;;;;;;;;;;;;16.19;77.79;100503.58;133705;1301;22482;-79
2023/06/06 05:42:27;;;;;;;;;;;;;;;16.23;77.72;100503.15;133773;1301;22461;-73
2023/06/06 05:45:27;;;;;;;;;;;;;;;16.23;77.42;100505.14;133777;1300;22530;-75
2023/06/06 05:48:28;;;;;;;;;;;;;;;16.23;77.18;100510.23;133804;1300;23248;-76
2023/06/06 05:51:28;;;;;;;;;;;;;;;16.25;76.96;100506.46;133814;1300;22505;-75
2023/06/06 05:54:29;;;;;;;;;;;;;;;16.26;76.99;100507.58;133635;1300;23136;-75
2023/06/06 05:57:30;;;;;;;;;;;;;;;16.28;76.81;100503.65;133769;1301;22483;-75
2023/06/06 06:00:34;;;;;;;;;;;;;;;16.35;77.10;100500.98;133798;1301;22600;-74
2023/06/06 06:03:36;;;;;;;;;;;;;;;16.42;77.07;100495.23;133802;1301;22524;-75
2023/06/06 06:06:37;;;;;;;;;;;;;;;16.47;77.02;100494.17;133799;1300;22468;-74
2023/06/06 06:09:37;;;;;;;;;;;;;;;16.52;76.75;100489.55;133799;1301;22482;-75
2023/06/06 06:12:38;;;;;;;;;;;;;;;16.55;76.45;100485.66;133807;1300;23251;-75
2023/06/06 06:15:39;;;;;;;;;;;;;;;16.67;76.66;100484.77;133788;1303;23189;-73
2023/06/06 06:18:41;;;;;;;;;;;;;;;16.79;75.99;100488.79;133760;1301;23113;-74
2023/06/06 06:21:47;;;;;;;;;;;;;;;16.79;75.29;100489.83;133799;1301;22477;-73
2023/06/06 06:24:47;;;;;;;;;;;;;;;16.82;75.31;100493.10;133756;1298;22469;-81
2023/06/06 06:27:48;;;;;;;;;;;;;;;16.86;75.06;100489.50;133764;1301;22495;-75
2023/06/06 06:30:49;;;;;;;;;;;;;;;16.87;74.17;100488.79;133754;1301;23200;-77
2023/06/06 06:33:50;;;;;;;;;;;;;;;16.87;73.77;100490.48;133709;1301;23101;-75
2023/06/06 06:36:51;;;;;;;;;;;;;;;16.92;73.75;100488.07;133740;1301;22470;-75
2023/06/06 06:39:54;;;;;;;;;;;;;;;16.96;73.48;100486.27;133766;1301;24358;-77
2023/06/06 06:42:55;;;;;;;;;;;;;;;16.95;72.63;100488.95;133774;1301;22648;-75
2023/06/06 06:46:10;;;;;;;;;;;;;;;16.92;72.34;100491.83;133630;1307;22463;-75
2023/06/06 06:49:22;;;;;;;;;;;;;;;16.96;72.39;100488.79;133705;1301;22666;-76
2023/06/06 06:52:24;;;;;;;;;;;;;;;17.02;72.08;100486.91;133751;1300;23258;-75
2023/06/06 06:55:25;;;;;;;;;;;;;;;17.08;70.92;100488.05;133784;1301;23207;-76
2023/06/06 06:58:33;;;;;;;;;;;;;;;17.13;70.47;100486.75;133841;1300;22502;-75
2023/06/06 07:01:34;;;;;;;;;;;;;;;17.24;70.48;100478.62;133805;1301;22509;-75
2023/06/06 07:04:39;;;;;;;;;;;;;;;17.40;69.49;100474.95;133814;1300;22461;-75
2023/06/06 07:07:46;;;;;;;;;;;;;;;17.59;69.27;100473.88;133770;1301;22510;-75
2023/06/06 07:10:48;;;;;;;;;;;;;;;17.78;68.72;100468.50;133794;1300;23200;-75
2023/06/06 07:13:50;;;;;;;;;;;;;;;18.01;68.29;100471.34;133825;1301;23203;-75
2023/06/06 07:16:51;;;;;;;;;;;;;;;18.18;66.97;100466.34;133748;1305;24201;-76
2023/06/06 07:19:55;;;;;;;;;;;;;;;18.20;66.05;100466.63;133672;1301;22430;-75
2023/06/06 07:22:56;;;;;;;;;;;;;;;18.21;65.82;100468.27;133852;1301;22465;-75
2023/06/06 07:26:00;;;;;;;;;;;;;;;18.26;65.76;100465.79;133768;1300;23191;-81
2023/06/06 07:29:03;;;;;;;;;;;;;;;18.27;65.17;100465.59;133817;1301;22666;-76
2023/06/06 07:32:04;;;;;;;;;;;;;;;18.27;64.76;100463.89;133789;1300;22495;-80
2023/06/06 07:35:07;;;;;;;;;;;;;;;18.34;65.40;100462.55;133771;1301;23242;-75
2023/06/06 07:38:08;;;;;;;;;;;;;;;18.47;64.86;100460.73;133804;1301;22464;-75
2023/06/06 07:41:16;;;;;;;;;;;;;;;18.55;63.89;100453.70;133803;1300;23174;-75
2023/06/06 07:44:18;;;;;;;;;;;;;;;18.58;62.62;100451.50;133705;1300;22459;-75
2023/06/06 07:47:19;;;;;;;;;;;;;;;18.61;62.60;100453.35;133620;1304;22527;-76
2023/06/06 07:50:20;;;;;;;;;;;;;;;18.75;61.49;100452.59;133774;1304;22448;-75
2023/06/06 07:53:20;;;;;;;;;;;;;;;18.77;61.02;100449.98;133654;1304;22458;-77
2023/06/06 07:56:21;;;;;;;;;;;;;;;18.84;60.72;100451.58;133797;1300;22466;-75
2023/06/06 07:59:22;;;;;;;;;;;;;;;18.93;60.80;100452.81;133761;1300;22476;-74
2023/06/06 08:02:23;;;;;;;;;;;;;;;19.07;61.01;100451.41;133805;1301;22487;-81
2023/06/06 08:05:25;;;;;;;;;;;;;;;19.20;61.05;100444.70;133786;1304;22446;-75
2023/06/06 08:08:26;;;;;;;;;;;;;;;19.32;60.77;100443.23;133774;1297;22514;-75
2023/06/06 08:11:26;;;;;;;;;;;;;;;19.48;60.67;100435.73;133782;1301;22487;-75
2023/06/06 08:14:29;;;;;;;;;;;;;;;19.64;59.93;100435.48;133820;1302;23296;-77
2023/06/06 08:17:29;;;;;;;;;;;;;;;19.78;59.75;100433.21;133798;1304;23185;-77
2023/06/06 08:20:30;;;;;;;;;;;;;;;20.04;58.62;100430.65;133748;1300;22550;-75
2023/06/06 08:23:30;;;;;;;;;;;;;;;20.25;56.52;100429.02;133803;1301;22498;-87
2023/06/06 08:26:32;;;;;;;;;;;;;;;20.36;56.30;100425.04;133571;1304;24636;-78
2023/06/06 08:29:32;;;;;;;;;;;;;;;20.56;56.04;100424.58;133765;1301;22486;-76
2023/06/06 08:32:33;;;;;;;;;;;;;;;20.79;55.63;100422.63;133776;1301;22437;-76
2023/06/06 08:35:33;;;;;;;;;;;;;;;20.96;55.40;100425.31;133759;1300;24323;-75
2023/06/06 08:38:34;;;;;;;;;;;;;;;21.17;55.02;100427.10;133746;1301;23583;-82
2023/06/06 08:41:35;;;;;;;;;;;;;;;21.30;54.13;100423.72;133615;1300;22460;-75
2023/06/06 08:44:36;;;;;;;;;;;;;;;21.31;53.56;100420.17;133712;1301;22433;-75
2023/06/06 08:47:37;;;;;;;;;;;;;;;21.44;53.94;100419.14;133773;1301;22492;-75
2023/06/06 08:50:38;;;;;;;;;;;;;;;21.75;53.40;100416.40;133752;1301;23327;-78
2023/06/06 08:53:38;;;;;;;;;;;;;;;22.20;52.65;100411.19;133834;1301;22468;-77
2023/06/06 08:56:43;;;;;;;;;;;;;;;22.72;51.61;100414.41;133681;1300;22516;-78
2023/06/06 08:59:43;;;;;;;;;;;;;;;23.04;51.03;100410.42;133827;1301;22492;-77
2023/06/06 09:02:45;;;;;;;;;;;;;;;23.16;48.82;100414.48;133748;1301;22441;-76
2023/06/06 09:05:49;;;;;;;;;;;;;;;23.02;48.67;100413.52;133846;1300;22472;-76
2023/06/06 09:08:50;;;;;;;;;;;;;;;23.20;49.17;100413.30;133786;1296;22551;-75
2023/06/06 09:11:50;;;;;;;;;;;;;;;23.30;47.51;100409.43;133744;1300;23551;-78
2023/06/06 09:14:52;;;;;;;;;;;;;;;23.42;48.45;100409.73;133740;1301;22471;-75
2023/06/06 09:17:53;;;;;;;;;;;;;;;23.88;48.49;100411.64;133617;1301;22460;-78
2023/06/06 09:20:54;;;;;;;;;;;;;;;23.95;47.42;100414.84;133801;1301;22486;-83
2023/06/06 09:23:54;;;;;;;;;;;;;;;23.84;47.42;100415.94;133730;1301;23188;-78
2023/06/06 09:26:55;;;;;;;;;;;;;;;23.78;46.27;100412.36;133726;1300;22531;-74
2023/06/06 09:29:55;;;;;;;;;;;;;;;24.02;46.47;100410.78;133766;1301;22457;-76
2023/06/06 09:33:00;;;;;;;;;;;;;;;24.52;45.92;100412.27;133784;1302;24445;-75
2023/06/06 09:36:03;;;;;;;;;;;;;;;24.70;44.88;100410.96;133790;1301;22442;-78
2023/06/06 09:39:14;;;;;;;;;;;;;;;24.91;44.53;100407.89;133798;1301;22500;-85
2023/06/06 09:42:15;;;;;;;;;;;;;;;24.94;42.37;100407.55;133721;1301;22481;-76
2023/06/06 09:45:19;;;;;;;;;;;;;;;24.63;40.95;100409.78;133788;1301;22463;-75
2023/06/06 09:48:23;;;;;;;;;;;;;;;24.41;41.65;100406.09;133717;1300;23210;-76
2023/06/06 09:51:24;;;;;;;;;;;;;;;24.31;42.06;100400.68;133747;1301;23168;-76
2023/06/06 09:54:24;;;;;;;;;;;;;;;24.50;42.08;100398.77;133789;1301;22446;-77
2023/06/06 09:57:25;;;;;;;;;;;;;;;24.77;41.51;100387.00;133716;1301;23114;-76
2023/06/06 10:00:27;;;;;;;;;;;;;;;25.02;41.47;100388.04;133755;1301;23221;-75
2023/06/06 10:03:30;;;;;;;;;;;;;;;25.01;40.34;100390.46;133697;1300;22520;-86
2023/06/06 10:06:33;;;;;;;;;;;;;;;24.93;40.82;100388.48;133761;1301;22438;-75
2023/06/06 10:09:34;;;;;;;;;;;;;;;24.87;40.70;100384.95;133696;1304;22441;-76
2023/06/06 10:12:35;;;;;;;;;;;;;;;24.95;40.70;100382.53;133738;1301;22460;-77
2023/06/06 10:15:36;;;;;;;;;;;;;;;25.29;40.62;100374.29;133773;1300;22467;-79
2023/06/06 10:18:37;;;;;;;;;;;;;;;25.54;40.29;100366.91;133804;1301;22433;-86
2023/06/06 10:21:41;;;;;;;;;;;;;;;25.80;39.95;100361.29;133728;1301;22443;-76
2023/06/06 10:24:41;;;;;;;;;;;;;;;26.02;39.26;100358.41;133695;1301;22530;-76
2023/06/06 10:27:50;;;;;;;;;;;;;;;25.91;37.34;100352.63;133727;1300;22490;-78
2023/06/06 10:30:59;;;;;;;;;;;;;;;25.68;37.25;100351.52;133798;1301;22463;-76
2023/06/06 10:34:03;;;;;;;;;;;;;;;25.48;35.92;100349.60;133751;1300;22439;-77
2023/06/06 10:37:15;;;;;;;;;;;;;;;25.12;35.95;100348.63;133738;1301;23264;-79
2023/06/06 10:40:16;;;;;;;;;;;;;;;24.73;35.23;100350.55;133765;1301;22487;-76
2023/06/06 10:43:36;;;;;;;;;;;;;;;24.49;35.31;100342.03;133744;1301;22475;-76
2023/06/06 10:46:37;;;;;;;;;;;;;;;24.36;35.54;100337.67;133753;1303;22472;-75
2023/06/06 10:49:40;;;;;;;;;;;;;;;24.32;35.75;100337.79;133745;1301;22419;-75
2023/06/06 10:52:40;;;;;;;;;;;;;;;24.42;35.43;100333.73;133763;1300;22468;-78
2023/06/06 10:55:44;;;;;;;;;;;;;;;24.72;36.36;100336.44;133759;1301;22459;-76
2023/06/06 10:58:45;;;;;;;;;;;;;;;25.23;35.64;100331.29;133777;1302;23233;-77
2023/06/06 11:01:45;;;;;;;;;;;;;;;25.60;34.74;100326.53;133751;1300;22462;-75
2023/06/06 11:04:46;;;;;;;;;;;;;;;25.85;34.88;100316.12;133748;1301;22479;-80
2023/06/06 11:07:47;;;;;;;;;;;;;;;26.07;34.28;100315.91;133785;1300;25093;-87
2023/06/06 11:10:47;;;;;;;;;;;;;;;26.27;34.04;100318.71;133754;1303;22484;-78
2023/06/06 11:13:53;;;;;;;;;;;;;;;26.43;34.36;100315.45;133801;1300;22460;-75
2023/06/06 11:16:58;;;;;;;;;;;;;;;26.61;34.05;100314.07;133765;1302;23185;-76
2023/06/06 11:19:59;;;;;;;;;;;;;;;26.59;33.51;100319.71;133778;1300;22444;-78
2023/06/06 11:23:03;;;;;;;;;;;;;;;26.51;32.84;100314.30;133743;1301;22464;-75
2023/06/06 11:26:04;;;;;;;;;;;;;;;26.38;32.56;100311.41;133734;1301;22495;-76
2023/06/06 11:29:05;;;;;;;;;;;;;;;26.16;32.62;100311.38;133717;1300;22502;-75
2023/06/06 11:32:09;;;;;;;;;;;;;;;26.10;33.20;100310.60;133758;1301;22455;-76
2023/06/06 11:35:14;;;;;;;;;;;;;;;26.12;32.73;100306.32;133768;1301;23214;-77
2023/06/06 11:38:14;;;;;;;;;;;;;;;26.06;32.73;100299.87;133804;1300;22483;-75
2023/06/06 11:41:15;;;;;;;;;;;;;;;25.99;32.79;100302.66;133746;1300;22467;-76
2023/06/06 11:44:16;;;;;;;;;;;;;;;25.98;33.52;100302.43;133749;1300;22469;-75
2023/06/06 11:47:17;;;;;;;;;;;;;;;26.10;33.29;100302.17;133739;1301;22404;-77
2023/06/06 11:50:27;;;;;;;;;;;;;;;26.34;33.55;100299.05;133681;1301;22446;-76
2023/06/06 11:53:29;;;;;;;;;;;;;;;26.65;32.95;100300.47;133734;1301;22479;-75
2023/06/06 11:56:31;;;;;;;;;;;;;;;26.64;32.91;100295.41;133765;1300;22567;-78
2023/06/06 11:59:37;;;;;;;;;;;;;;;26.54;33.02;100296.14;133747;1301;22458;-82
2023/06/06 12:02:40;;;;;;;;;;;;;;;26.45;32.90;100294.29;133690;1302;23680;-76
2023/06/06 12:05:41;;;;;;;;;;;;;;;26.38;33.07;100291.08;133709;1301;22485;-75
2023/06/06 12:08:42;;;;;;;;;;;;;;;26.30;32.66;100288.77;133723;1301;22466;-75
2023/06/06 12:12:10;;;;;;;;;;;;;;;26.29;33.29;100283.91;133732;1300;22456;-78
2023/06/06 12:15:10;;;;;;;;;;;;;;;26.33;32.84;100284.08;133699;1304;23226;-76
2023/06/06 12:18:13;;;;;;;;;;;;;;;26.26;32.69;100285.04;133733;1300;23290;-74
2023/06/06 12:21:16;;;;;;;;;;;;;;;26.11;32.43;100283.57;133701;1301;22451;-79
2023/06/06 12:24:19;;;;;;;;;;;;;;;26.16;33.45;100281.33;133715;1300;22497;-77
2023/06/06 12:27:27;;;;;;;;;;;;;;;26.31;33.30;100279.40;133559;1301;22485;-73
2023/06/06 12:30:34;;;;;;;;;;;;;;;26.43;32.95;100279.45;133716;1300;23330;-74
2023/06/06 12:33:44;;;;;;;;;;;;;;;26.45;32.63;100273.41;133585;1302;22449;-75
2023/06/06 12:36:50;;;;;;;;;;;;;;;26.40;31.89;100270.84;133725;1302;22476;-73
2023/06/06 12:39:50;;;;;;;;;;;;;;;26.43;31.76;100267.67;133772;1300;23176;-74
2023/06/06 12:42:56;;;;;;;;;;;;;;;26.57;32.36;100267.14;133752;1308;22473;-73
2023/06/06 12:45:57;;;;;;;;;;;;;;;26.73;32.06;100272.95;133690;1301;22462;-74
2023/06/06 12:48:57;;;;;;;;;;;;;;;26.68;32.00;100273.75;133721;1302;22529;-75
2023/06/06 12:52:01;;;;;;;;;;;;;;;26.71;32.34;100267.88;133761;1302;22549;-75
2023/06/06 12:55:05;;;;;;;;;;;;;;;26.93;32.13;100265.17;133763;1301;22536;-75
2023/06/06 12:58:09;;;;;;;;;;;;;;;27.17;32.68;100263.07;133741;1301;23093;-75
2023/06/06 13:01:12;;;;;;;;;;;;;;;27.37;31.40;100256.84;133764;1300;22496;-75
2023/06/06 13:04:16;;;;;;;;;;;;;;;27.33;31.90;100253.53;133742;1301;22474;-75
2023/06/06 13:07:19;;;;;;;;;;;;;;;27.35;31.72;100255.65;133767;1301;23109;-74
2023/06/06 13:10:21;;;;;;;;;;;;;;;27.33;32.09;100257.02;133694;1301;22460;-81
2023/06/06 13:13:29;;;;;;;;;;;;;;;27.24;30.59;100256.54;133699;1303;22459;-75
2023/06/06 13:16:32;;;;;;;;;;;;;;;26.88;30.70;100250.75;133748;1301;22477;-74
2023/06/06 13:19:35;;;;;;;;;;;;;;;26.77;31.30;100249.22;133755;1304;22927;-76
2023/06/06 13:22:36;;;;;;;;;;;;;;;26.78;31.24;100244.53;133809;1301;22511;-74
2023/06/06 13:25:37;;;;;;;;;;;;;;;26.80;31.29;100236.48;133764;1301;22485;-86
2023/06/06 13:28:40;;;;;;;;;;;;;;;26.71;31.66;100240.93;133801;1302;22533;-77
2023/06/06 13:31:46;;;;;;;;;;;;;;;26.59;31.49;100242.81;133784;1301;23170;-74
2023/06/06 13:34:47;;;;;;;;;;;;;;;26.49;31.65;100243.49;133737;1302;23282;-74
2023/06/06 13:37:47;;;;;;;;;;;;;;;26.53;32.10;100239.27;133754;1304;23290;-74
2023/06/06 13:40:50;;;;;;;;;;;;;;;26.49;31.65;100236.91;133787;1301;22450;-74
2023/06/06 13:44:01;;;;;;;;;;;;;;;26.52;31.98;100227.95;133745;1308;23270;-77
2023/06/06 13:47:03;;;;;;;;;;;;;;;26.44;31.30;100226.36;133737;1301;22653;-76
2023/06/06 13:50:10;;;;;;;;;;;;;;;26.17;31.46;100223.07;133718;1301;22471;-74
2023/06/06 13:53:14;;;;;;;;;;;;;;;25.99;32.08;100221.38;133755;1301;22483;-74
2023/06/06 13:56:15;;;;;;;;;;;;;;;25.90;32.14;100215.64;133752;1301;22576;-84
2023/06/06 13:59:16;;;;;;;;;;;;;;;25.76;32.33;100212.23;133772;1301;22466;-74
2023/06/06 14:02:17;;;;;;;;;;;;;;;25.67;32.56;100211.00;133745;1302;22531;-73
2023/06/06 14:05:18;;;;;;;;;;;;;;;25.68;33.17;100211.13;133755;1297;22424;-83
2023/06/06 14:08:19;;;;;;;;;;;;;;;25.62;32.92;100210.10;133764;1301;22573;-83
2023/06/06 14:11:21;;;;;;;;;;;;;;;25.55;32.74;100206.70;133790;1301;22509;-78
2023/06/06 14:14:21;;;;;;;;;;;;;;;25.50;32.90;100204.50;133711;1305;23492;-77
2023/06/06 14:17:22;;;;;;;;;;;;;;;25.42;33.22;100207.49;133741;1300;22516;-75
2023/06/06 14:20:24;;;;;;;;;;;;;;;25.37;33.21;100204.27;133728;1301;22476;-76
2023/06/06 14:23:26;;;;;;;;;;;;;;;25.31;33.20;100201.34;133585;1304;22544;-76
2023/06/06 14:26:26;;;;;;;;;;;;;;;25.23;33.72;100200.81;133792;1301;22457;-76
2023/06/06 14:29:27;;;;;;;;;;;;;;;25.22;33.81;100204.55;133582;1301;23331;-76
2023/06/06 14:32:30;;;;;;;;;;;;;;;25.29;34.41;100198.73;133738;1304;22482;-78
2023/06/06 14:35:31;;;;;;;;;;;;;;;25.51;35.04;100200.64;133798;1291;22489;-76
2023/06/06 14:38:33;;;;;;;;;;;;;;;25.73;34.45;100199.63;133834;1301;22445;-76
2023/06/06 14:41:34;;;;;;;;;;;;;;;25.72;33.78;100194.77;133714;1307;22444;-76
2023/06/06 14:44:38;;;;;;;;;;;;;;;25.73;33.79;100192.55;133755;1301;22456;-78
2023/06/06 14:47:41;;;;;;;;;;;;;;;25.74;33.84;100193.42;133546;1301;23047;-77
2023/06/06 14:50:42;;;;;;;;;;;;;;;25.75;34.06;100189.46;133825;1301;22444;-73
2023/06/06 14:53:46;;;;;;;;;;;;;;;25.79;33.97;100189.96;133717;1307;22546;-73
2023/06/06 14:56:49;;;;;;;;;;;;;;;25.81;33.55;100191.98;133655;1301;23149;-74
2023/06/06 14:59:58;;;;;;;;;;;;;;;25.78;33.68;100192.30;133773;1304;23351;-74
2023/06/06 15:03:05;;;;;;;;;;;;;;;25.73;33.38;100191.45;133701;1297;23260;-74
2023/06/06 15:06:11;;;;;;;;;;;;;;;25.63;33.40;100188.64;133642;1301;22524;-74
2023/06/06 15:09:12;;;;;;;;;;;;;;;25.59;33.24;100186.51;133696;1301;23269;-73
2023/06/06 15:12:16;;;;;;;;;;;;;;;25.55;33.24;100186.55;133814;1301;22443;-74
2023/06/06 15:15:16;;;;;;;;;;;;;;;25.46;33.27;100183.39;133726;1301;22443;-72
2023/06/06 15:18:18;;;;;;;;;;;;;;;25.38;33.44;100180.38;133719;1305;22467;-75